Time;durP1;ratioP1;P1;durP2;ratioP2;P2;SDS_P1;SDS_P2;PMS_P1;PMS_P2;Temp;Humidity;BMP_temperature;BMP_pressure;BME280_temperature;BME280_humidity;BME280_pressure;Samples;Min_cycle;Max_cycle;Signal;HPM_P1;HPM_P2
2021/09/30 00:09:31;;;;;;;0.40;0.10;;;10.00;99.90;;;;;;20907328;27;20392;-44
2021/09/30 00:40:21;;;;;;;0.45;0.20;;;10.00;99.90;;;;;;20892022;28;20083;-44
2021/09/30 01:57:54;;;;;;;1.20;0.47;;;9.80;99.90;;;;;;20909028;27;20052;-44
2021/09/30 02:24:23;;;;;;;0.63;0.10;;;9.90;99.90;;;;;;20900580;28;20389;-44
2021/09/30 03:05:46;;;;;;;0.98;0.20;;;9.80;99.90;;;;;;20900666;28;20047;-44
2021/09/30 03:26:10;;;;;;;3.08;0.93;;;10.00;99.90;;;;;;20890541;28;20442;-44
2021/09/30 03:36:11;;;;;;;3.38;1.70;;;9.90;99.90;;;;;;20889765;28;20059;-44
2021/09/30 03:46:13;;;;;;;3.63;0.70;;;9.90;99.90;;;;;;20917033;28;20036;-44
2021/09/30 04:06:19;;;;;;;1.48;0.50;;;9.80;99.90;;;;;;20898332;28;20163;-44
2021/09/30 04:16:20;;;;;;;1.38;0.40;;;9.70;99.90;;;;;;20910562;28;20544;-44
2021/09/30 04:26:21;;;;;;;3.67;0.40;;;9.70;99.90;;;;;;20911306;28;20393;-44
2021/09/30 04:36:22;;;;;;;1.33;0.47;;;9.80;99.90;;;;;;20939950;28;20156;-44
2021/09/30 04:46:24;;;;;;;1.10;0.65;;;9.80;99.90;;;;;;20923877;28;20445;-44
2021/09/30 04:56:25;;;;;;;2.05;0.43;;;9.70;99.90;;;;;;20904258;28;20086;-44
2021/09/30 05:06:27;;;;;;;3.25;0.43;;;9.70;99.90;;;;;;20931255;27;20052;-44
2021/09/30 05:16:28;;;;;;;6.03;0.55;;;9.70;99.90;;;;;;21000262;27;20051;-44
2021/09/30 05:26:32;;;;;;;4.53;0.85;;;9.60;99.90;;;;;;20982060;28;20064;-44
2021/09/30 05:36:34;;;;;;;1.40;0.40;;;9.50;99.90;;;;;;20988032;27;20056;-44
2021/09/30 05:46:51;;;;;;;4.00;0.80;;;9.50;99.90;;;;;;21001500;27;20032;-44
2021/09/30 05:56:52;;;;;;;;;;;9.50;99.90;;;;;;20997870;28;20588;-44
2021/09/30 06:17:15;;;;;;;1.25;0.30;;;9.50;99.90;;;;;;20931776;27;20053;-44
2021/09/30 06:27:16;;;;;;;3.55;0.88;;;9.60;99.90;;;;;;20982620;28;20420;-43
2021/09/30 06:37:17;;;;;;;1.88;0.30;;;9.70;99.90;;;;;;20983980;28;20064;-43
2021/09/30 06:47:18;;;;;;;3.00;0.50;;;9.90;99.90;;;;;;21006284;28;20588;-43
2021/09/30 06:57:21;;;;;;;6.32;1.08;;;10.00;99.90;;;;;;21015167;28;20146;-43
2021/09/30 07:07:22;;;;;;;3.92;0.68;;;10.40;99.90;;;;;;20991401;28;20324;-43
2021/09/30 07:17:25;;;;;;;1.17;0.38;;;10.70;99.90;;;;;;21005352;28;20412;-43
2021/09/30 07:27:26;;;;;;;0.90;0.40;;;10.80;99.90;;;;;;21035636;27;20057;-43
2021/09/30 07:37:27;;;;;;;2.95;0.77;;;10.90;99.90;;;;;;21020774;27;20049;-43
2021/09/30 07:47:28;;;;;;;1.33;0.50;;;11.20;99.90;;;;;;21038427;27;20044;-43
2021/09/30 07:57:29;;;;;;;2.15;0.73;;;11.40;99.90;;;;;;21069054;27;20514;-43
2021/09/30 08:07:30;;;;;;;3.90;1.50;;;11.50;99.90;;;;;;21036038;27;20071;-43
2021/09/30 08:17:32;;;;;;;7.78;1.02;;;11.60;99.90;;;;;;21048231;27;20131;-44
2021/09/30 08:27:33;;;;;;;4.05;0.70;;;11.80;99.90;;;;;;21069436;27;20556;-44
2021/09/30 08:37:36;;;;;;;2.13;0.75;;;12.30;99.90;;;;;;21067280;27;20101;-44
2021/09/30 08:47:38;;;;;;;2.40;0.90;;;12.40;99.90;;;;;;21064483;27;20036;-44
2021/09/30 08:57:50;;;;;;;2.13;0.50;;;12.40;99.90;;;;;;21074201;27;20068;-44
2021/09/30 09:07:59;;;;;;;2.47;1.40;;;12.60;99.90;;;;;;21056538;27;20039;-44
2021/09/30 09:18:21;;;;;;;1.77;0.50;;;13.00;99.90;;;;;;21074458;27;20074;-44
2021/09/30 09:28:22;;;;;;;1.77;0.47;;;13.30;99.90;;;;;;21058338;27;20040;-44
2021/09/30 09:38:30;;;;;;;1.20;0.30;;;13.40;99.90;;;;;;21033256;27;20068;-44
2021/09/30 09:48:33;;;;;;;3.90;0.63;;;13.40;99.90;;;;;;20981468;28;20045;-44
2021/09/30 09:58:49;;;;;;;1.92;0.40;;;13.40;99.90;;;;;;20972369;27;20292;-44
2021/09/30 10:08:50;;;;;;;1.77;0.50;;;13.50;99.90;;;;;;20936833;28;20044;-44
2021/09/30 10:19:00;;;;;;;1.95;0.32;;;13.60;99.90;;;;;;20983240;27;20378;-44
2021/09/30 10:29:02;;;;;;;3.60;0.50;;;13.70;99.90;;;;;;20974725;27;20051;-44
2021/09/30 10:39:33;;;;;;;1.30;0.35;;;13.80;99.90;;;;;;20995534;28;20056;-44
2021/09/30 10:49:43;;;;;;;0.73;0.32;;;13.80;99.90;;;;;;20986594;28;20396;-44
2021/09/30 10:59:44;;;;;;;0.90;0.25;;;13.90;99.90;;;;;;21006643;27;20288;-44
2021/09/30 11:10:31;;;;;;;8.07;0.90;;;14.00;99.90;;;;;;21015023;28;20052;-44
2021/09/30 11:20:33;;;;;;;0.63;0.28;;;14.30;99.90;;;;;;21003668;28;20060;-44
2021/09/30 11:30:34;;;;;;;8.38;1.02;;;14.20;99.90;;;;;;21019551;28;20051;-44
2021/09/30 11:40:35;;;;;;;1.38;0.65;;;13.90;99.90;;;;;;21032993;27;20051;-44
2021/09/30 11:50:36;;;;;;;2.83;0.35;;;14.00;99.90;;;;;;21012860;28;20068;-44
2021/09/30 12:00:40;;;;;;;2.65;0.45;;;14.00;99.90;;;;;;21022711;27;20047;-44
2021/09/30 12:10:41;;;;;;;1.25;0.40;;;14.10;99.90;;;;;;21021677;27;20019;-44
2021/09/30 12:20:57;;;;;;;1.17;0.50;;;14.00;99.90;;;;;;21013940;27;20045;-44
2021/09/30 12:31:04;;;;;;;4.70;1.17;;;14.00;99.90;;;;;;21017286;27;20406;-44
2021/09/30 12:41:06;;;;;;;0.87;0.57;;;14.00;99.90;;;;;;21040036;27;20058;-44
2021/09/30 12:51:12;;;;;;;2.42;0.43;;;14.10;99.90;;;;;;21034872;27;20046;-44
2021/09/30 13:01:25;;;;;;;1.02;0.57;;;13.90;99.90;;;;;;21006740;28;20540;-44
2021/09/30 13:11:35;;;;;;;1.63;0.35;;;13.80;99.90;;;;;;21007376;28;20044;-44
2021/09/30 13:21:56;;;;;;;1.63;0.45;;;13.60;99.90;;;;;;20997955;28;20488;-44
2021/09/30 13:31:58;;;;;;;2.65;0.85;;;13.70;99.90;;;;;;20978782;28;20052;-44
2021/09/30 13:42:00;;;;;;;0.65;0.20;;;13.80;99.90;;;;;;21000711;28;20577;-44
2021/09/30 13:52:02;;;;;;;4.25;0.47;;;13.90;99.90;;;;;;20996263;28;20036;-44
2021/09/30 14:02:04;;;;;;;1.50;0.40;;;14.30;99.90;;;;;;20982148;28;20055;-44
2021/09/30 14:12:07;;;;;;;0.57;0.20;;;14.30;99.90;;;;;;20974399;28;20416;-44
2021/09/30 14:22:11;;;;;;;4.28;0.60;;;14.20;99.90;;;;;;20994069;28;20059;-44
2021/09/30 14:32:13;;;;;;;9.57;1.33;;;14.10;99.90;;;;;;21013386;27;20579;-44
2021/09/30 14:42:18;;;;;;;7.03;1.33;;;14.00;99.90;;;;;;20987127;28;20062;-44
2021/09/30 14:52:19;;;;;;;0.95;0.25;;;14.00;99.90;;;;;;21014334;28;20050;-43
2021/09/30 15:02:21;;;;;;;3.08;0.95;;;14.10;99.90;;;;;;20997121;28;20106;-44
2021/09/30 15:12:22;;;;;;;3.00;0.30;;;14.10;99.90;;;;;;21014748;28;20059;-44
2021/09/30 15:22:24;;;;;;;4.57;0.95;;;14.00;99.90;;;;;;20998022;28;20507;-44
2021/09/30 15:32:25;;;;;;;0.93;0.38;;;14.00;99.90;;;;;;20992625;28;20055;-44
2021/09/30 15:42:26;;;;;;;3.40;0.30;;;14.00;99.90;;;;;;21009021;28;20048;-44
2021/09/30 15:52:27;;;;;;;1.75;0.45;;;13.90;99.90;;;;;;21014912;27;20039;-44
2021/09/30 16:02:28;;;;;;;1.88;0.50;;;14.00;99.90;;;;;;21008466;27;20048;-44
2021/09/30 16:12:30;;;;;;;3.45;0.40;;;14.00;99.90;;;;;;21014655;27;20412;-44
2021/09/30 16:22:31;;;;;;;2.10;0.30;;;14.00;99.90;;;;;;21004790;27;20068;-44
2021/09/30 16:32:32;;;;;;;0.77;0.40;;;13.90;99.90;;;;;;20989493;28;20052;-44
2021/09/30 16:42:35;;;;;;;3.78;0.63;;;13.90;99.90;;;;;;20992649;28;20044;-44
2021/09/30 16:52:37;;;;;;;2.90;0.30;;;13.90;99.90;;;;;;20996853;28;20048;-44
2021/09/30 17:02:38;;;;;;;2.58;0.20;;;13.90;99.90;;;;;;20984198;28;20052;-44
2021/09/30 17:12:42;;;;;;;5.72;0.45;;;14.00;99.90;;;;;;20995847;27;20163;-44
2021/09/30 17:22:45;;;;;;;1.63;0.60;;;14.00;99.90;;;;;;21008484;28;20523;-44
2021/09/30 17:32:46;;;;;;;2.05;0.20;;;14.00;99.90;;;;;;21002666;28;20547;-44
2021/09/30 17:42:48;;;;;;;2.08;0.20;;;13.90;99.90;;;;;;21006252;27;20036;-44
2021/09/30 17:52:49;;;;;;;1.77;0.50;;;13.80;99.90;;;;;;20975220;27;20035;-44
2021/09/30 18:02:50;;;;;;;0.40;0.20;;;13.80;99.90;;;;;;20964300;28;20048;-44
2021/09/30 18:12:51;;;;;;;1.40;0.30;;;13.70;99.90;;;;;;20967286;28;20378;-44
2021/09/30 18:22:52;;;;;;;0.63;0.20;;;13.70;99.90;;;;;;20948294;28;20080;-44
2021/09/30 18:32:53;;;;;;;2.58;1.13;;;13.60;99.90;;;;;;20978113;28;20520;-44
2021/09/30 18:42:57;;;;;;;2.58;0.40;;;13.60;99.90;;;;;;20971497;28;20040;-44
2021/09/30 18:52:58;;;;;;;4.45;0.32;;;13.70;99.90;;;;;;20984404;28;20358;-44
2021/09/30 19:03:01;;;;;;;2.13;0.25;;;13.70;99.90;;;;;;20976058;28;20048;-45
2021/09/30 19:13:02;;;;;;;1.55;0.38;;;13.70;99.90;;;;;;20996849;27;20439;-45
2021/09/30 19:23:03;;;;;;;1.35;0.20;;;13.70;99.90;;;;;;20994001;28;20037;-45
2021/09/30 19:33:05;;;;;;;2.08;0.25;;;13.80;99.90;;;;;;20999470;27;20512;-45
2021/09/30 19:43:08;;;;;;;1.95;0.50;;;13.80;99.90;;;;;;21004041;27;20040;-45
2021/09/30 19:53:09;;;;;;;2.30;0.45;;;13.80;99.90;;;;;;21013300;27;20052;-45
2021/09/30 20:03:11;;;;;;;2.13;0.57;;;13.70;99.90;;;;;;21003689;27;20035;-45
2021/09/30 20:13:12;;;;;;;0.65;0.20;;;13.70;99.90;;;;;;21001815;27;20029;-45
2021/09/30 20:23:14;;;;;;;1.90;0.60;;;13.80;99.90;;;;;;20991649;27;20056;-45
2021/09/30 20:33:15;;;;;;;3.90;0.50;;;13.80;99.90;;;;;;20992436;27;20055;-45
2021/09/30 20:43:22;;;;;;;1.52;0.50;;;13.70;99.90;;;;;;20992240;28;20036;-45
2021/09/30 20:53:23;;;;;;;1.45;0.30;;;13.70;99.90;;;;;;20987079;27;20061;-45
2021/09/30 21:03:25;;;;;;;1.42;0.50;;;13.60;99.90;;;;;;21000005;27;20028;-45
2021/09/30 21:13:26;;;;;;;2.10;0.50;;;13.50;99.90;;;;;;21002608;27;20040;-45
2021/09/30 21:33:38;;;;;;;1.73;0.60;;;13.30;99.90;;;;;;20599661;22;20578;-83
2021/09/30 21:43:40;;;;;;;1.20;0.40;;;13.30;99.90;;;;;;20597606;28;20053;-83
2021/09/30 21:53:41;;;;;;;3.85;0.57;;;13.10;99.90;;;;;;20546372;28;20057;-83
2021/09/30 22:03:43;;;;;;;3.03;0.70;;;13.20;99.90;;;;;;20579528;28;20050;-83
2021/09/30 22:13:45;;;;;;;5.18;0.50;;;13.20;99.90;;;;;;20560979;28;20049;-83
2021/09/30 22:23:46;;;;;;;1.27;0.40;;;13.10;99.90;;;;;;20551909;28;20057;-83
2021/09/30 22:33:47;;;;;;;1.95;0.43;;;13.20;99.90;;;;;;20525369;28;20062;-83
2021/09/30 22:43:49;;;;;;;0.90;0.45;;;13.20;99.90;;;;;;20547583;28;20167;-83
2021/09/30 22:53:51;;;;;;;6.53;0.98;;;13.30;99.90;;;;;;20517132;28;20115;-83
2021/09/30 23:03:52;;;;;;;19.60;0.70;;;13.30;99.90;;;;;;20519330;28;20042;-83
2021/09/30 23:13:56;;;;;;;1.55;0.60;;;13.20;99.90;;;;;;20560096;28;20054;-83
2021/09/30 23:23:57;;;;;;;2.70;0.73;;;13.30;99.90;;;;;;20506201;28;20052;-82
2021/09/30 23:33:59;;;;;;;1.65;0.50;;;13.20;99.90;;;;;;20573685;28;20093;-83
2021/09/30 23:44:00;;;;;;;2.05;0.68;;;13.10;99.90;;;;;;20559341;28;20158;-83
2021/09/30 23:54:02;;;;;;;3.17;0.60;;;13.10;99.90;;;;;;20503159;28;20052;-83
